createdAt,value
2019-05-20T00:00:22.890Z,6.30
2019-05-20T00:02:52.245Z,4.87
2019-05-20T00:05:21.607Z,5.87
2019-05-20T00:07:50.989Z,5.13
2019-05-20T00:10:20.351Z,5.73
2019-05-20T00:12:49.713Z,5.50
2019-05-20T00:15:19.091Z,6.60
2019-05-20T00:17:48.528Z,5.97
2019-05-20T00:20:18.029Z,7.13
2019-05-20T00:22:48.979Z,7.00
2019-05-20T00:25:18.345Z,6.00
2019-05-20T00:27:47.715Z,6.37
2019-05-20T00:30:17.508Z,6.13
2019-05-20T00:32:46.875Z,5.07
2019-05-20T00:35:16.445Z,5.30
2019-05-20T00:37:45.879Z,6.00
2019-05-20T00:40:15.646Z,5.30
2019-05-20T00:42:45.013Z,4.77
2019-05-20T00:45:15.368Z,6.63
2019-05-20T00:47:44.733Z,6.20
2019-05-20T00:50:14.371Z,6.67
2019-05-20T00:52:43.767Z,6.00
2019-05-20T00:55:25.677Z,5.93
2019-05-20T00:57:55.067Z,5.87
2019-05-20T01:00:24.864Z,5.60
2019-05-20T01:02:56.851Z,6.20
2019-05-20T01:05:25.855Z,5.77
2019-05-20T01:07:55.219Z,5.77
2019-05-20T01:10:24.591Z,5.73
2019-05-20T01:12:53.990Z,6.50
2019-05-20T01:15:23.490Z,5.40
2019-05-20T01:17:52.856Z,5.70
2019-05-20T01:20:22.235Z,5.00
2019-05-20T01:22:51.608Z,5.50
2019-05-20T01:25:21.194Z,5.80
2019-05-20T01:27:50.923Z,8.00
2019-05-20T01:30:21.103Z,6.33
2019-05-20T01:32:50.464Z,5.37
2019-05-20T01:35:19.850Z,5.90
2019-05-20T01:37:49.236Z,4.97
2019-05-20T01:40:18.674Z,6.28
2019-05-20T01:42:48.057Z,6.17
2019-05-20T01:45:17.558Z,5.50
2019-05-20T01:47:46.920Z,5.97
2019-05-20T01:50:16.789Z,5.63
2019-05-20T01:52:46.154Z,5.63
2019-05-20T02:14:41.945Z,6.63
2019-05-20T02:17:11.320Z,6.77
2019-05-20T02:19:40.660Z,8.13
2019-05-20T02:22:10.051Z,8.83
2019-05-20T02:24:39.461Z,8.33
2019-05-20T02:27:09.442Z,7.65
2019-05-20T02:29:38.966Z,7.67
2019-05-20T02:32:08.345Z,8.03
2019-05-20T02:34:37.725Z,8.23
2019-05-20T02:37:07.497Z,7.30
2019-05-20T02:39:36.923Z,8.40
2019-05-20T02:42:06.422Z,7.93
2019-05-20T02:44:35.894Z,9.20
2019-05-20T02:47:05.283Z,7.23
2019-05-20T02:49:34.621Z,7.00
2019-05-20T02:52:04.079Z,7.60
2019-05-20T02:54:33.428Z,7.50
2019-05-20T02:57:02.793Z,6.97
2019-05-20T02:59:32.211Z,8.53
2019-05-20T03:02:01.591Z,7.10
2019-05-20T03:04:30.926Z,8.53
2019-05-20T03:07:00.389Z,7.37
2019-05-20T03:09:29.753Z,8.10
2019-05-20T03:11:59.148Z,7.67
2019-05-20T03:14:28.507Z,8.13
2019-05-20T03:16:57.881Z,8.20
2019-05-20T03:19:27.252Z,7.57
2019-05-20T03:21:57.277Z,8.20
2019-05-20T03:24:26.642Z,8.30
2019-05-20T03:26:56.014Z,10.37
2019-05-20T03:29:26.322Z,9.30
2019-05-20T03:31:55.703Z,12.53
2019-05-20T03:34:45.423Z,10.27
2019-05-20T03:36:56.174Z,8.60
2019-05-20T03:39:25.555Z,11.53
2019-05-20T03:41:54.947Z,11.87
2019-05-20T03:44:25.245Z,11.63
2019-05-20T03:46:54.604Z,13.07
2019-05-20T03:49:24.062Z,11.13
2019-05-20T03:51:53.519Z,12.03
2019-05-20T03:54:22.894Z,11.17
2019-05-20T03:56:52.265Z,13.23
2019-05-20T03:59:21.655Z,10.67
2019-05-20T04:01:51.026Z,13.23
2019-05-20T04:04:20.411Z,13.50
2019-05-20T04:06:49.879Z,12.93
2019-05-20T04:09:19.261Z,13.10
2019-05-20T04:11:48.636Z,15.87
2019-05-20T04:14:18.032Z,12.80
2019-05-20T04:16:49.050Z,18.03
2019-05-20T04:19:18.417Z,19.53
2019-05-20T04:21:47.841Z,18.75
2019-05-20T04:24:17.208Z,25.53
2019-05-20T04:26:46.575Z,24.83
2019-05-20T04:29:16.252Z,21.67
2019-05-20T04:31:45.983Z,21.43
2019-05-20T04:34:15.385Z,23.10
2019-05-20T04:36:44.757Z,22.32
2019-05-20T04:39:14.129Z,20.13
2019-05-20T04:41:43.504Z,22.00
2019-05-20T04:44:12.915Z,18.33
2019-05-20T04:46:42.367Z,18.93
2019-05-20T04:49:11.734Z,22.97
2019-05-20T04:51:41.152Z,23.53
2019-05-20T04:54:10.722Z,20.50
2019-05-20T04:56:40.093Z,23.03
2019-05-20T04:59:09.786Z,17.57
2019-05-20T05:01:39.158Z,20.57
2019-05-20T05:04:08.531Z,24.67
2019-05-20T05:06:37.926Z,22.27
2019-05-20T05:09:07.994Z,22.10
2019-05-20T05:11:37.370Z,20.33
2019-05-20T05:14:06.842Z,22.77
2019-05-20T05:16:36.209Z,20.90
2019-05-20T05:19:05.714Z,23.90
2019-05-20T05:21:35.198Z,23.93
2019-05-20T05:24:04.642Z,21.50
2019-05-20T05:26:34.014Z,23.83
2019-05-20T05:29:03.457Z,19.37
2019-05-20T05:31:32.821Z,24.27
2019-05-20T05:34:02.590Z,18.17
2019-05-20T05:36:32.292Z,22.13
2019-05-20T05:39:01.673Z,22.53
2019-05-20T05:41:31.044Z,22.07
2019-05-20T05:44:00.425Z,23.23
2019-05-20T05:46:29.797Z,23.87
2019-05-20T05:48:59.192Z,23.20
2019-05-20T05:51:28.567Z,23.40
2019-05-20T05:53:57.929Z,22.70
2019-05-20T05:56:27.321Z,23.30
2019-05-20T05:58:56.740Z,24.27
2019-05-20T06:01:26.119Z,22.97
2019-05-20T06:03:55.493Z,23.60
2019-05-20T06:06:24.871Z,25.40
2019-05-20T06:08:54.240Z,22.30
2019-05-20T06:11:23.615Z,21.82
2019-05-20T06:13:53.002Z,23.70
2019-05-20T06:16:35.935Z,22.37
2019-05-20T06:18:53.462Z,22.20
2019-05-20T06:21:23.249Z,22.97
2019-05-20T06:23:52.622Z,23.83
2019-05-20T06:26:22.010Z,22.47
2019-05-20T06:28:51.405Z,25.27
2019-05-20T06:31:20.796Z,22.23
2019-05-20T06:33:50.170Z,20.47
2019-05-20T06:36:26.962Z,22.03
2019-05-20T06:38:53.083Z,23.27
2019-05-20T06:41:22.468Z,23.70
2019-05-20T06:43:52.207Z,23.00
2019-05-20T06:46:21.589Z,24.73
2019-05-20T06:48:50.981Z,22.10
2019-05-20T06:51:20.384Z,22.07
2019-05-20T06:53:49.780Z,24.17
2019-05-20T06:56:19.178Z,21.53
2019-05-20T06:58:48.567Z,24.73
2019-05-20T07:01:17.969Z,23.97
2019-05-20T07:03:47.339Z,23.70
2019-05-20T07:06:16.758Z,24.13
2019-05-20T07:08:46.142Z,20.83
2019-05-20T07:11:15.519Z,23.57
2019-05-20T07:13:44.924Z,22.17
2019-05-20T07:16:14.387Z,22.67
2019-05-20T07:18:43.728Z,24.17
2019-05-20T07:21:13.142Z,24.83
2019-05-20T07:23:42.538Z,23.53
2019-05-20T07:26:11.928Z,24.00
2019-05-20T07:28:41.728Z,22.13
2019-05-20T07:31:11.265Z,22.83
2019-05-20T07:33:40.669Z,21.10
2019-05-20T07:36:10.326Z,21.87
2019-05-20T07:38:40.669Z,22.13
2019-05-20T07:41:10.116Z,22.40
2019-05-20T07:43:39.516Z,20.53
2019-05-20T07:46:09.946Z,20.10
2019-05-20T07:48:40.267Z,19.63
2019-05-20T07:51:11.975Z,18.67
2019-05-20T07:53:42.210Z,20.37
2019-05-20T07:56:21.925Z,21.97
2019-05-20T07:58:55.934Z,20.87
2019-05-20T08:01:25.454Z,19.20
2019-05-20T08:03:54.851Z,20.10
2019-05-20T08:06:24.441Z,19.60
2019-05-20T08:08:53.891Z,19.93
2019-05-20T08:11:23.692Z,19.93
2019-05-20T08:13:53.078Z,20.17
2019-05-20T08:16:22.575Z,20.47
2019-05-20T08:18:51.966Z,19.93
2019-05-20T08:21:21.400Z,21.50
2019-05-20T08:23:50.778Z,20.03
2019-05-20T08:26:20.192Z,16.20
2019-05-20T08:28:49.582Z,19.57
2019-05-20T08:31:18.957Z,20.67
2019-05-20T08:33:48.824Z,19.73
2019-05-20T08:36:18.277Z,22.30
2019-05-20T08:38:47.658Z,20.00
2019-05-20T08:41:18.292Z,23.37
2019-05-20T08:43:47.663Z,23.33
2019-05-20T08:46:17.027Z,20.80
2019-05-20T08:48:46.435Z,21.40
2019-05-20T08:51:15.822Z,21.33
2019-05-20T08:53:45.238Z,23.57
2019-05-20T08:56:15.086Z,24.15
2019-05-20T08:58:44.529Z,25.47
2019-05-20T09:01:13.863Z,25.33
2019-05-20T09:03:43.246Z,26.80
2019-05-20T09:06:12.667Z,28.03
2019-05-20T09:08:42.164Z,25.47
2019-05-20T09:11:11.607Z,27.80
2019-05-20T09:13:40.992Z,25.47
2019-05-20T09:16:10.379Z,30.27
2019-05-20T09:18:39.833Z,27.20
2019-05-20T09:21:09.299Z,27.43
2019-05-20T09:23:38.664Z,26.70
2019-05-20T09:26:08.062Z,29.00
2019-05-20T09:28:37.859Z,28.43
2019-05-20T09:31:07.615Z,27.10
2019-05-20T09:33:39.827Z,27.43
2019-05-20T09:36:09.216Z,29.07
2019-05-20T09:38:38.766Z,29.70
2019-05-20T09:41:08.229Z,26.40
2019-05-20T09:43:38.450Z,30.37
2019-05-20T09:46:08.447Z,30.73
2019-05-20T09:48:38.074Z,31.70
2019-05-20T09:51:07.516Z,30.73
2019-05-20T09:53:36.889Z,33.73
2019-05-20T09:56:06.350Z,32.47
2019-05-20T09:58:35.724Z,32.27
2019-05-20T10:01:05.157Z,31.83
2019-05-20T10:03:34.592Z,32.57
2019-05-20T10:06:04.056Z,31.27
2019-05-20T10:08:43.287Z,32.37
2019-05-20T10:11:04.643Z,32.87
2019-05-20T10:13:33.996Z,34.23
2019-05-20T10:16:03.384Z,34.60
2019-05-20T10:18:37.281Z,30.13
2019-05-20T10:21:03.879Z,32.37
2019-05-20T10:23:33.246Z,33.50
2019-05-20T10:26:02.979Z,34.38
2019-05-20T10:28:32.353Z,34.03
2019-05-20T10:31:01.734Z,35.70
2019-05-20T10:33:31.119Z,34.50
2019-05-20T10:36:00.742Z,35.23
2019-05-20T10:38:30.110Z,35.87
2019-05-20T10:40:59.534Z,32.97
2019-05-20T10:43:28.911Z,34.30
2019-05-20T10:45:58.763Z,35.43
2019-05-20T10:48:28.196Z,34.83
2019-05-20T10:50:57.561Z,37.93
2019-05-20T10:53:28.445Z,38.80
2019-05-20T10:55:58.615Z,38.27
2019-05-20T10:58:28.386Z,38.17
2019-05-20T11:01:03.193Z,36.30
2019-05-20T11:03:29.480Z,35.33
2019-05-20T11:05:58.875Z,38.10
2019-05-20T11:08:28.261Z,40.37
2019-05-20T11:10:57.652Z,42.07
2019-05-20T11:13:27.020Z,39.70
2019-05-20T11:15:56.470Z,40.07
2019-05-20T11:18:25.934Z,40.03
2019-05-20T11:20:55.675Z,42.03
2019-05-20T11:23:25.081Z,44.93
2019-05-20T11:25:54.560Z,41.17
2019-05-20T11:28:23.968Z,39.83
2019-05-20T11:30:53.351Z,42.00
2019-05-20T11:33:22.753Z,50.10
2019-05-20T11:35:52.135Z,47.67
2019-05-20T11:38:21.503Z,47.57
2019-05-20T11:40:50.902Z,48.20
2019-05-20T11:43:20.283Z,48.87
2019-05-20T11:45:49.658Z,47.83
2019-05-20T11:48:19.135Z,49.30
2019-05-20T11:50:48.505Z,50.73
2019-05-20T11:53:17.953Z,50.67
2019-05-20T11:55:47.367Z,51.93
2019-05-20T11:58:16.940Z,53.20
2019-05-20T12:00:46.304Z,50.83
2019-05-20T12:03:15.772Z,46.27
2019-05-20T12:05:45.148Z,48.10
2019-05-20T12:08:14.582Z,48.83
2019-05-20T12:10:45.584Z,46.73
2019-05-20T12:13:14.964Z,47.47
2019-05-20T12:15:44.331Z,52.57
2019-05-20T12:18:13.756Z,52.87
2019-05-20T12:20:43.144Z,53.63
2019-05-20T12:23:12.516Z,51.93
2019-05-20T12:25:41.989Z,54.07
2019-05-20T12:28:11.412Z,52.60
2019-05-20T12:30:42.525Z,55.67
2019-05-20T12:33:19.881Z,57.03
2019-05-20T12:35:43.027Z,53.77
2019-05-20T12:38:12.414Z,53.60
2019-05-20T12:40:42.356Z,51.03
2019-05-20T12:43:11.718Z,49.07
2019-05-20T12:45:41.092Z,53.07
2019-05-20T12:48:10.501Z,51.43
2019-05-20T12:50:39.877Z,49.93
2019-05-20T12:53:09.253Z,51.27
2019-05-20T12:55:38.674Z,53.90
2019-05-20T12:58:08.053Z,44.10
2019-05-20T13:00:37.439Z,53.13
2019-05-20T13:03:06.818Z,55.37
2019-05-20T13:05:36.273Z,55.83
2019-05-20T13:08:05.845Z,53.50
2019-05-20T13:10:35.263Z,57.03
2019-05-20T13:13:04.653Z,50.53
2019-05-20T13:15:34.009Z,51.63
2019-05-20T13:18:03.495Z,51.17
2019-05-20T13:20:32.872Z,49.50
2019-05-20T13:23:02.792Z,52.30
2019-05-20T13:25:32.847Z,47.87
2019-05-20T13:28:02.279Z,48.10
2019-05-20T13:30:31.789Z,48.50
2019-05-20T13:33:01.181Z,48.17
2019-05-20T13:35:30.554Z,45.57
2019-05-20T13:37:59.930Z,47.20
2019-05-20T13:40:45.113Z,51.33
2019-05-20T13:43:00.425Z,52.53
2019-05-20T13:45:29.813Z,44.67
2019-05-20T13:47:59.205Z,46.90
2019-05-20T13:50:28.584Z,52.53
2019-05-20T13:52:58.365Z,47.17
2019-05-20T13:55:27.759Z,49.45
2019-05-20T13:57:57.149Z,48.90
2019-05-20T14:00:26.862Z,57.77
2019-05-20T14:02:57.086Z,51.63
2019-05-20T14:05:26.471Z,53.33
2019-05-20T14:07:55.838Z,61.23
2019-05-20T14:10:25.232Z,55.93
2019-05-20T14:12:54.608Z,46.27
2019-05-20T14:15:24.006Z,48.93
2019-05-20T14:17:53.436Z,54.03
2019-05-20T14:20:22.841Z,47.90
2019-05-20T14:22:52.226Z,47.47
2019-05-20T14:25:21.654Z,46.27
2019-05-20T14:27:51.022Z,44.27
2019-05-20T14:30:20.811Z,45.07
2019-05-20T14:32:50.204Z,47.73
2019-05-20T14:35:19.652Z,42.97
2019-05-20T14:37:49.026Z,44.40
2019-05-20T14:40:19.102Z,43.90
2019-05-20T14:42:48.474Z,38.77
2019-05-20T14:45:18.066Z,41.27
2019-05-20T14:47:47.487Z,44.00
2019-05-20T14:50:17.019Z,41.03
2019-05-20T14:52:46.395Z,38.07
2019-05-20T14:55:15.924Z,42.30
2019-05-20T14:57:45.295Z,43.00
2019-05-20T15:00:15.170Z,41.15
2019-05-20T15:02:44.562Z,39.90
2019-05-20T15:05:14.172Z,41.53
2019-05-20T15:07:43.557Z,40.13
2019-05-20T15:10:13.755Z,39.20
2019-05-20T15:12:43.216Z,43.03
2019-05-20T15:15:13.705Z,42.87
2019-05-20T15:17:43.099Z,43.97
2019-05-20T15:20:12.724Z,44.80
2019-05-20T15:22:42.107Z,43.30
2019-05-20T15:25:11.771Z,46.80
2019-05-20T15:27:41.160Z,44.53
2019-05-20T15:30:11.351Z,49.20
2019-05-20T15:32:40.828Z,47.80
2019-05-20T15:35:13.311Z,45.93
2019-05-20T15:37:42.680Z,60.03
2019-05-20T15:40:12.486Z,52.07
2019-05-20T15:42:41.919Z,79.80
2019-05-20T15:45:12.165Z,54.27
2019-05-20T15:47:41.589Z,47.77
2019-05-20T15:50:11.508Z,48.70
2019-05-20T15:52:40.881Z,46.03
2019-05-20T15:55:10.867Z,45.27
2019-05-20T15:57:40.249Z,50.07
2019-05-20T16:00:11.014Z,49.80
2019-05-20T16:02:40.400Z,41.37
2019-05-20T16:05:10.285Z,47.07
2019-05-20T16:07:39.690Z,51.77
2019-05-20T16:10:09.394Z,48.63
2019-05-20T16:12:38.798Z,45.23
2019-05-20T16:15:08.993Z,48.40
2019-05-20T16:17:38.889Z,50.83
2019-05-20T16:20:08.885Z,51.93
2019-05-20T16:22:38.280Z,50.50
2019-05-20T16:25:08.496Z,68.07
2019-05-20T16:27:37.874Z,48.83
2019-05-20T16:30:10.627Z,51.00
2019-05-20T16:32:40.511Z,62.47
2019-05-20T16:35:10.401Z,89.27
2019-05-20T16:37:39.788Z,50.20
2019-05-20T16:40:10.903Z,51.00
2019-05-20T16:42:40.883Z,51.37
2019-05-20T16:45:12.109Z,51.50
2019-05-20T16:47:42.064Z,50.33
2019-05-20T16:50:11.711Z,47.47
2019-05-20T16:52:41.094Z,48.43
2019-05-20T16:55:11.103Z,48.77
2019-05-20T16:57:40.476Z,50.13
2019-05-20T17:00:29.723Z,50.23
2019-05-20T17:02:42.603Z,53.27
2019-05-20T17:05:13.111Z,51.07
2019-05-20T17:07:42.556Z,49.83
2019-05-20T17:10:12.129Z,49.67
2019-05-20T17:12:41.563Z,45.83
2019-05-20T17:15:11.519Z,47.67
2019-05-20T17:17:40.905Z,48.03
2019-05-20T17:20:11.101Z,46.03
2019-05-20T17:22:40.539Z,46.70
2019-05-20T17:25:11.655Z,51.10
2019-05-20T17:27:41.029Z,47.33
2019-05-20T17:30:12.504Z,47.63
2019-05-20T17:32:42.002Z,47.13
2019-05-20T17:35:11.684Z,49.50
2019-05-20T17:37:41.078Z,49.70
2019-05-20T17:40:11.696Z,49.50
2019-05-20T17:42:41.122Z,48.73
2019-05-20T17:45:11.903Z,49.33
2019-05-20T17:47:41.307Z,46.90
2019-05-20T17:50:11.911Z,48.35
2019-05-20T17:52:41.275Z,45.80
2019-05-20T17:55:11.853Z,46.50
2019-05-20T17:57:41.239Z,46.43
2019-05-20T18:00:13.251Z,46.88
2019-05-20T18:02:43.521Z,45.67
2019-05-20T18:05:14.958Z,44.73
2019-05-20T18:07:44.741Z,46.63
2019-05-20T18:10:19.731Z,46.63
2019-05-20T18:12:49.106Z,45.27
2019-05-20T18:15:18.783Z,47.20
2019-05-20T18:17:48.186Z,47.17
2019-05-20T18:20:18.670Z,48.93
2019-05-20T18:22:48.119Z,47.93
2019-05-20T18:25:17.583Z,48.50
2019-05-20T18:27:46.951Z,45.33
2019-05-20T18:30:16.737Z,48.83
2019-05-20T18:32:47.018Z,47.93
2019-05-20T18:35:16.532Z,46.57
2019-05-20T18:37:45.904Z,49.13
2019-05-20T18:40:16.604Z,46.97
2019-05-20T18:42:45.975Z,45.63
2019-05-20T18:45:15.998Z,48.80
2019-05-20T18:47:45.385Z,47.33
2019-05-20T18:50:15.398Z,48.63
2019-05-20T18:52:44.776Z,45.67
2019-05-20T18:55:15.055Z,46.37
2019-05-20T18:57:44.419Z,48.50
2019-05-20T19:00:14.707Z,48.27
2019-05-20T19:02:45.132Z,49.97
2019-05-20T19:05:15.786Z,49.40
2019-05-20T19:07:45.289Z,44.17
2019-05-20T19:10:15.620Z,48.28
2019-05-20T19:12:45.012Z,53.63
2019-05-20T19:15:15.689Z,46.50
2019-05-20T19:17:45.547Z,51.47
2019-05-20T19:20:15.138Z,51.50
2019-05-20T19:22:44.973Z,54.17
2019-05-20T19:25:14.510Z,53.30
2019-05-20T19:27:43.930Z,51.47
2019-05-20T19:30:13.616Z,50.00
2019-05-20T19:32:43.002Z,52.27
2019-05-20T19:35:12.712Z,54.80
2019-05-20T19:37:42.167Z,53.37
2019-05-20T19:40:12.729Z,52.00
2019-05-20T19:42:42.154Z,51.23
2019-05-20T19:45:11.949Z,53.93
2019-05-20T19:47:41.354Z,52.83
2019-05-20T19:50:11.144Z,49.77
2019-05-20T19:52:40.507Z,52.77
2019-05-20T19:55:10.301Z,52.33
2019-05-20T19:57:39.775Z,55.37
2019-05-20T20:00:10.232Z,53.33
2019-05-20T20:02:39.720Z,53.70
2019-05-20T20:05:09.694Z,52.27
2019-05-20T20:07:39.407Z,53.23
2019-05-20T20:10:09.199Z,51.43
2019-05-20T20:12:38.575Z,52.47
2019-05-20T20:15:09.568Z,53.43
2019-05-20T20:17:38.961Z,49.70
2019-05-20T20:20:08.539Z,53.23
2019-05-20T20:22:37.918Z,48.70
2019-05-20T20:25:08.255Z,49.97
2019-05-20T20:27:37.633Z,51.47
2019-05-20T20:30:09.179Z,52.60
2019-05-20T20:32:39.055Z,49.83
2019-05-20T20:35:09.684Z,49.80
2019-05-20T20:37:39.049Z,52.23
2019-05-20T20:40:08.699Z,49.23
2019-05-20T20:42:38.058Z,50.37
2019-05-20T20:45:07.639Z,49.43
2019-05-20T20:47:41.686Z,50.13
2019-05-20T20:50:08.751Z,48.67
2019-05-20T20:52:38.130Z,44.10
2019-05-20T20:55:09.255Z,48.90
2019-05-20T20:57:38.696Z,49.97
2019-05-20T21:00:10.603Z,50.63
2019-05-20T21:02:52.239Z,48.27
2019-05-20T21:05:11.803Z,48.63
2019-05-20T21:07:41.644Z,49.27
2019-05-20T21:10:12.514Z,49.67
2019-05-20T21:12:41.911Z,47.33
2019-05-20T21:15:11.575Z,52.60
2019-05-20T21:17:42.378Z,46.87
2019-05-20T21:20:12.063Z,46.30
2019-05-20T21:22:41.424Z,49.00
2019-05-20T21:25:11.151Z,48.57
2019-05-20T21:27:40.540Z,49.13
2019-05-20T21:30:10.438Z,49.77
2019-05-20T21:32:39.821Z,51.63
2019-05-20T21:35:09.415Z,51.87
2019-05-20T21:37:38.982Z,50.87
2019-05-20T21:40:08.919Z,51.83
2019-05-20T21:42:38.293Z,51.73
2019-05-20T21:45:08.786Z,52.70
2019-05-20T21:47:38.606Z,51.70
2019-05-20T21:50:09.162Z,47.43
2019-05-20T21:52:38.539Z,49.40
2019-05-20T21:55:08.339Z,48.03
2019-05-20T21:57:37.693Z,54.67
2019-05-20T22:00:11.473Z,48.80
2019-05-20T22:02:41.034Z,46.00
2019-05-20T22:05:10.727Z,50.17
2019-05-20T22:07:40.120Z,52.97
2019-05-20T22:10:10.510Z,49.43
2019-05-20T22:12:40.292Z,49.77
2019-05-20T22:15:09.801Z,50.67
2019-05-20T22:17:39.203Z,49.97
2019-05-20T22:20:09.196Z,48.87
2019-05-20T22:22:49.012Z,47.90
2019-05-20T22:25:18.378Z,51.50
2019-05-20T22:27:47.818Z,45.73
2019-05-20T22:30:17.284Z,46.70
2019-05-20T22:32:46.653Z,48.17
2019-05-20T22:35:16.034Z,45.83
2019-05-20T22:37:45.450Z,46.47
2019-05-20T22:40:15.147Z,44.83
2019-05-20T22:42:44.522Z,42.73
2019-05-20T22:45:14.456Z,42.30
2019-05-20T22:47:43.824Z,41.23
2019-05-20T22:50:13.283Z,38.90
2019-05-20T22:52:42.667Z,33.70
2019-05-20T22:55:12.117Z,35.23
2019-05-20T22:57:41.489Z,35.43
2019-05-20T23:00:11.806Z,34.30
2019-05-20T23:02:41.168Z,32.33
2019-05-20T23:05:10.754Z,29.00
2019-05-20T23:07:40.238Z,29.63
2019-05-20T23:10:10.311Z,29.37
2019-05-20T23:12:39.688Z,26.40
2019-05-20T23:15:10.421Z,27.90
2019-05-20T23:17:39.881Z,27.43
2019-05-20T23:20:09.878Z,28.33
2019-05-20T23:22:39.269Z,27.27
2019-05-20T23:25:08.786Z,28.00
2019-05-20T23:27:38.196Z,28.17
2019-05-20T23:30:09.909Z,29.30
2019-05-20T23:32:39.276Z,26.00
2019-05-20T23:35:08.856Z,28.27
2019-05-20T23:37:38.240Z,28.53
2019-05-20T23:40:08.816Z,27.90
2019-05-20T23:42:38.178Z,28.07
2019-05-20T23:45:10.159Z,29.93
2019-05-20T23:47:39.521Z,29.33
2019-05-20T23:50:09.109Z,29.43
2019-05-20T23:52:38.604Z,29.40
2019-05-20T23:55:09.099Z,29.63
2019-05-20T23:57:38.460Z,28.20
